sensor_id;sensor_type;location;lat;lon;timestamp;temperature;humidity
43089;DHT22;28709;52.030;5.652;2023-06-26T00:00:40;24.60;91.40
43089;DHT22;28709;52.030;5.652;2023-06-26T00:03:05;24.60;91.50
43089;DHT22;28709;52.030;5.652;2023-06-26T00:05:31;24.60;91.60
43089;DHT22;28709;52.030;5.652;2023-06-26T00:07:58;24.60;91.70
43089;DHT22;28709;52.030;5.652;2023-06-26T00:10:26;24.50;91.80
43089;DHT22;28709;52.030;5.652;2023-06-26T00:12:53;24.50;91.90
43089;DHT22;28709;52.030;5.652;2023-06-26T00:15:19;24.40;92.00
43089;DHT22;28709;52.030;5.652;2023-06-26T00:17:45;24.40;92.00
43089;DHT22;28709;52.030;5.652;2023-06-26T00:20:10;24.40;92.20
43089;DHT22;28709;52.030;5.652;2023-06-26T00:22:36;24.30;92.20
43089;DHT22;28709;52.030;5.652;2023-06-26T00:25:06;24.30;92.20
43089;DHT22;28709;52.030;5.652;2023-06-26T00:27:32;24.30;92.30
43089;DHT22;28709;52.030;5.652;2023-06-26T00:29:57;24.20;92.40
43089;DHT22;28709;52.030;5.652;2023-06-26T00:32:23;24.30;92.50
43089;DHT22;28709;52.030;5.652;2023-06-26T00:34:48;24.20;92.50
43089;DHT22;28709;52.030;5.652;2023-06-26T00:37:14;24.20;92.50
43089;DHT22;28709;52.030;5.652;2023-06-26T00:39:40;24.20;92.60
43089;DHT22;28709;52.030;5.652;2023-06-26T00:42:06;24.20;92.70
43089;DHT22;28709;52.030;5.652;2023-06-26T00:44:32;24.10;92.70
43089;DHT22;28709;52.030;5.652;2023-06-26T00:46:57;24.20;92.70
43089;DHT22;28709;52.030;5.652;2023-06-26T00:49:24;24.20;92.80
43089;DHT22;28709;52.030;5.652;2023-06-26T00:51:49;24.20;92.80
43089;DHT22;28709;52.030;5.652;2023-06-26T00:54:15;24.20;92.90
43089;DHT22;28709;52.030;5.652;2023-06-26T00:56:46;24.10;92.90
43089;DHT22;28709;52.030;5.652;2023-06-26T00:59:12;24.10;93.10
43089;DHT22;28709;52.030;5.652;2023-06-26T01:01:38;24.00;93.20
43089;DHT22;28709;52.030;5.652;2023-06-26T01:04:03;24.00;93.30
43089;DHT22;28709;52.030;5.652;2023-06-26T01:06:33;24.00;93.40
43089;DHT22;28709;52.030;5.652;2023-06-26T01:09:02;23.90;93.50
43089;DHT22;28709;52.030;5.652;2023-06-26T01:11:28;23.90;93.60
43089;DHT22;28709;52.030;5.652;2023-06-26T01:13:54;23.80;93.70
43089;DHT22;28709;52.030;5.652;2023-06-26T01:16:23;23.80;93.80
43089;DHT22;28709;52.030;5.652;2023-06-26T01:18:49;23.80;93.90
43089;DHT22;28709;52.030;5.652;2023-06-26T01:21:15;23.70;93.90
43089;DHT22;28709;52.030;5.652;2023-06-26T01:26:19;23.70;94.00
43089;DHT22;28709;52.030;5.652;2023-06-26T01:28:46;23.70;94.00
43089;DHT22;28709;52.030;5.652;2023-06-26T01:31:13;23.70;94.00
43089;DHT22;28709;52.030;5.652;2023-06-26T01:33:41;23.70;94.00
43089;DHT22;28709;52.030;5.652;2023-06-26T01:36:07;23.70;94.10
43089;DHT22;28709;52.030;5.652;2023-06-26T01:38:33;23.60;94.10
43089;DHT22;28709;52.030;5.652;2023-06-26T01:41:00;23.60;94.00
43089;DHT22;28709;52.030;5.652;2023-06-26T01:45:59;23.40;94.10
43089;DHT22;28709;52.030;5.652;2023-06-26T01:48:31;23.30;94.10
43089;DHT22;28709;52.030;5.652;2023-06-26T01:50:59;23.30;94.10
43089;DHT22;28709;52.030;5.652;2023-06-26T01:53:32;23.20;94.10
43089;DHT22;28709;52.030;5.652;2023-06-26T01:56:11;23.10;94.20
43089;DHT22;28709;52.030;5.652;2023-06-26T01:58:42;23.00;94.20
43089;DHT22;28709;52.030;5.652;2023-06-26T02:01:09;23.00;94.40
43089;DHT22;28709;52.030;5.652;2023-06-26T02:03:34;22.90;94.50
43089;DHT22;28709;52.030;5.652;2023-06-26T02:06:00;22.80;94.80
43089;DHT22;28709;52.030;5.652;2023-06-26T02:08:26;22.80;94.90
43089;DHT22;28709;52.030;5.652;2023-06-26T02:10:51;22.70;95.10
43089;DHT22;28709;52.030;5.652;2023-06-26T02:13:17;22.60;95.20
43089;DHT22;28709;52.030;5.652;2023-06-26T02:15:42;22.50;95.40
43089;DHT22;28709;52.030;5.652;2023-06-26T02:18:08;22.50;95.60
43089;DHT22;28709;52.030;5.652;2023-06-26T02:20:34;22.40;95.80
43089;DHT22;28709;52.030;5.652;2023-06-26T02:22:59;22.40;95.90
43089;DHT22;28709;52.030;5.652;2023-06-26T02:25:25;22.30;96.10
43089;DHT22;28709;52.030;5.652;2023-06-26T02:27:51;22.20;96.40
43089;DHT22;28709;52.030;5.652;2023-06-26T02:30:16;22.20;96.50
43089;DHT22;28709;52.030;5.652;2023-06-26T02:32:42;22.10;96.60
43089;DHT22;28709;52.030;5.652;2023-06-26T02:35:08;22.00;96.80
43089;DHT22;28709;52.030;5.652;2023-06-26T02:37:34;22.00;97.00
43089;DHT22;28709;52.030;5.652;2023-06-26T02:39:59;21.90;97.20
43089;DHT22;28709;52.030;5.652;2023-06-26T02:42:25;21.80;97.30
43089;DHT22;28709;52.030;5.652;2023-06-26T02:44:50;21.80;97.50
43089;DHT22;28709;52.030;5.652;2023-06-26T02:47:17;21.80;97.50
43089;DHT22;28709;52.030;5.652;2023-06-26T02:49:42;21.70;97.70
43089;DHT22;28709;52.030;5.652;2023-06-26T02:52:08;21.70;97.90
43089;DHT22;28709;52.030;5.652;2023-06-26T02:54:34;21.60;98.00
43089;DHT22;28709;52.030;5.652;2023-06-26T02:57:00;21.60;98.00
43089;DHT22;28709;52.030;5.652;2023-06-26T02:59:26;21.60;98.30
43089;DHT22;28709;52.030;5.652;2023-06-26T03:01:51;21.50;98.70
43089;DHT22;28709;52.030;5.652;2023-06-26T03:04:17;21.40;99.00
43089;DHT22;28709;52.030;5.652;2023-06-26T03:06:43;21.30;99.40
43089;DHT22;28709;52.030;5.652;2023-06-26T03:09:09;21.30;99.60
43089;DHT22;28709;52.030;5.652;2023-06-26T03:11:34;21.30;99.90
43089;DHT22;28709;52.030;5.652;2023-06-26T03:14:00;21.20;99.90
43089;DHT22;28709;52.030;5.652;2023-06-26T03:16:25;21.10;99.90
43089;DHT22;28709;52.030;5.652;2023-06-26T03:18:51;21.10;99.90
43089;DHT22;28709;52.030;5.652;2023-06-26T03:21:17;21.00;99.90
43089;DHT22;28709;52.030;5.652;2023-06-26T03:23:43;21.00;99.90
43089;DHT22;28709;52.030;5.652;2023-06-26T03:26:08;21.00;99.90
43089;DHT22;28709;52.030;5.652;2023-06-26T03:28:34;21.00;99.90
43089;DHT22;28709;52.030;5.652;2023-06-26T03:31:00;21.00;99.90
43089;DHT22;28709;52.030;5.652;2023-06-26T03:33:25;21.00;99.90
43089;DHT22;28709;52.030;5.652;2023-06-26T03:35:51;21.00;99.90
43089;DHT22;28709;52.030;5.652;2023-06-26T03:38:16;20.90;99.90
43089;DHT22;28709;52.030;5.652;2023-06-26T03:40:42;20.80;99.90
43089;DHT22;28709;52.030;5.652;2023-06-26T03:43:08;20.80;99.90
43089;DHT22;28709;52.030;5.652;2023-06-26T03:45:33;20.80;99.90
43089;DHT22;28709;52.030;5.652;2023-06-26T03:47:59;20.70;99.90
43089;DHT22;28709;52.030;5.652;2023-06-26T03:50:24;20.70;99.90
43089;DHT22;28709;52.030;5.652;2023-06-26T03:52:50;20.70;99.90
43089;DHT22;28709;52.030;5.652;2023-06-26T03:55:17;20.80;99.90
43089;DHT22;28709;52.030;5.652;2023-06-26T03:57:43;20.70;99.90
43089;DHT22;28709;52.030;5.652;2023-06-26T04:00:09;20.70;99.90
43089;DHT22;28709;52.030;5.652;2023-06-26T04:02:36;20.70;99.90
43089;DHT22;28709;52.030;5.652;2023-06-26T04:05:02;20.70;99.90
43089;DHT22;28709;52.030;5.652;2023-06-26T04:07:29;20.70;99.90
43089;DHT22;28709;52.030;5.652;2023-06-26T04:09:57;20.70;99.90
43089;DHT22;28709;52.030;5.652;2023-06-26T04:12:22;20.70;99.90
43089;DHT22;28709;52.030;5.652;2023-06-26T04:14:48;20.70;99.90
43089;DHT22;28709;52.030;5.652;2023-06-26T04:17:13;20.70;99.90
43089;DHT22;28709;52.030;5.652;2023-06-26T04:19:39;20.70;99.90
43089;DHT22;28709;52.030;5.652;2023-06-26T04:22:05;20.70;99.90
43089;DHT22;28709;52.030;5.652;2023-06-26T04:24:30;20.60;99.90
43089;DHT22;28709;52.030;5.652;2023-06-26T04:26:56;20.60;99.90
43089;DHT22;28709;52.030;5.652;2023-06-26T04:29:23;20.60;99.90
43089;DHT22;28709;52.030;5.652;2023-06-26T04:31:51;20.50;99.90
43089;DHT22;28709;52.030;5.652;2023-06-26T04:34:17;20.60;99.90
43089;DHT22;28709;52.030;5.652;2023-06-26T04:36:42;20.60;99.90
43089;DHT22;28709;52.030;5.652;2023-06-26T04:39:11;20.60;99.90
43089;DHT22;28709;52.030;5.652;2023-06-26T04:41:37;20.60;99.90
43089;DHT22;28709;52.030;5.652;2023-06-26T04:44:03;20.60;99.90
43089;DHT22;28709;52.030;5.652;2023-06-26T04:46:28;20.60;99.90
43089;DHT22;28709;52.030;5.652;2023-06-26T04:48:54;20.60;99.90
43089;DHT22;28709;52.030;5.652;2023-06-26T04:51:20;20.60;99.90
43089;DHT22;28709;52.030;5.652;2023-06-26T04:53:46;20.50;99.90
43089;DHT22;28709;52.030;5.652;2023-06-26T04:56:11;20.50;99.90
43089;DHT22;28709;52.030;5.652;2023-06-26T04:58:38;20.50;99.90
43089;DHT22;28709;52.030;5.652;2023-06-26T05:01:03;20.60;99.90
43089;DHT22;28709;52.030;5.652;2023-06-26T05:03:32;20.60;99.90
43089;DHT22;28709;52.030;5.652;2023-06-26T05:05:58;20.60;99.90
43089;DHT22;28709;52.030;5.652;2023-06-26T05:08:24;20.70;99.90
43089;DHT22;28709;52.030;5.652;2023-06-26T05:10:52;20.70;99.90
43089;DHT22;28709;52.030;5.652;2023-06-26T05:13:18;20.80;99.90
43089;DHT22;28709;52.030;5.652;2023-06-26T05:15:45;20.80;99.90
43089;DHT22;28709;52.030;5.652;2023-06-26T05:18:11;20.90;99.90
43089;DHT22;28709;52.030;5.652;2023-06-26T05:20:37;21.00;99.90
43089;DHT22;28709;52.030;5.652;2023-06-26T05:23:04;21.00;99.90
43089;DHT22;28709;52.030;5.652;2023-06-26T05:25:30;21.10;99.90
43089;DHT22;28709;52.030;5.652;2023-06-26T05:27:57;21.20;99.90
43089;DHT22;28709;52.030;5.652;2023-06-26T05:30:26;21.20;99.90
43089;DHT22;28709;52.030;5.652;2023-06-26T05:32:53;21.20;99.90
43089;DHT22;28709;52.030;5.652;2023-06-26T05:35:23;21.30;99.90
43089;DHT22;28709;52.030;5.652;2023-06-26T05:37:49;21.30;99.90
43089;DHT22;28709;52.030;5.652;2023-06-26T05:40:16;21.30;99.90
43089;DHT22;28709;52.030;5.652;2023-06-26T05:42:43;21.30;99.90
43089;DHT22;28709;52.030;5.652;2023-06-26T05:45:10;21.30;99.90
43089;DHT22;28709;52.030;5.652;2023-06-26T05:47:36;21.40;99.90
43089;DHT22;28709;52.030;5.652;2023-06-26T05:50:02;21.40;99.90
43089;DHT22;28709;52.030;5.652;2023-06-26T05:52:28;21.40;99.90
43089;DHT22;28709;52.030;5.652;2023-06-26T05:54:55;21.40;99.90
43089;DHT22;28709;52.030;5.652;2023-06-26T05:57:24;21.40;99.90
43089;DHT22;28709;52.030;5.652;2023-06-26T05:59:50;21.50;99.90
43089;DHT22;28709;52.030;5.652;2023-06-26T06:02:16;21.60;99.90
43089;DHT22;28709;52.030;5.652;2023-06-26T06:04:42;21.60;99.90
43089;DHT22;28709;52.030;5.652;2023-06-26T06:07:07;21.70;99.90
43089;DHT22;28709;52.030;5.652;2023-06-26T06:09:33;21.70;99.90
43089;DHT22;28709;52.030;5.652;2023-06-26T06:11:59;21.80;99.90
43089;DHT22;28709;52.030;5.652;2023-06-26T06:14:25;21.90;99.90
43089;DHT22;28709;52.030;5.652;2023-06-26T06:16:51;22.00;99.90
43089;DHT22;28709;52.030;5.652;2023-06-26T06:19:16;22.00;99.90
43089;DHT22;28709;52.030;5.652;2023-06-26T06:21:42;22.10;99.90
43089;DHT22;28709;52.030;5.652;2023-06-26T06:24:08;22.10;99.90
43089;DHT22;28709;52.030;5.652;2023-06-26T06:26:35;22.20;99.90
43089;DHT22;28709;52.030;5.652;2023-06-26T06:29:01;22.30;99.90
43089;DHT22;28709;52.030;5.652;2023-06-26T06:31:27;22.30;99.90
43089;DHT22;28709;52.030;5.652;2023-06-26T06:33:55;22.40;99.90
43089;DHT22;28709;52.030;5.652;2023-06-26T06:36:21;22.40;99.90
43089;DHT22;28709;52.030;5.652;2023-06-26T06:38:46;22.60;99.90
43089;DHT22;28709;52.030;5.652;2023-06-26T06:41:12;22.70;99.90
43089;DHT22;28709;52.030;5.652;2023-06-26T06:43:39;22.80;99.90
43089;DHT22;28709;52.030;5.652;2023-06-26T06:46:05;22.90;99.90
43089;DHT22;28709;52.030;5.652;2023-06-26T06:48:31;22.90;99.90
43089;DHT22;28709;52.030;5.652;2023-06-26T06:50:57;22.90;99.50
43089;DHT22;28709;52.030;5.652;2023-06-26T06:53:22;22.90;99.60
43089;DHT22;28709;52.030;5.652;2023-06-26T06:55:49;22.90;99.70
43089;DHT22;28709;52.030;5.652;2023-06-26T06:58:15;23.00;99.70
43089;DHT22;28709;52.030;5.652;2023-06-26T07:00:42;23.00;99.50
43089;DHT22;28709;52.030;5.652;2023-06-26T07:03:08;23.10;99.20
43089;DHT22;28709;52.030;5.652;2023-06-26T07:05:36;23.10;99.20
43089;DHT22;28709;52.030;5.652;2023-06-26T07:08:01;23.20;99.30
43089;DHT22;28709;52.030;5.652;2023-06-26T07:10:28;23.30;99.10
43089;DHT22;28709;52.030;5.652;2023-06-26T07:12:54;23.50;99.10
43089;DHT22;28709;52.030;5.652;2023-06-26T07:15:19;23.50;98.90
43089;DHT22;28709;52.030;5.652;2023-06-26T07:17:45;23.50;98.70
43089;DHT22;28709;52.030;5.652;2023-06-26T07:20:11;23.30;99.10
43089;DHT22;28709;52.030;5.652;2023-06-26T07:22:41;23.20;99.30
43089;DHT22;28709;52.030;5.652;2023-06-26T07:25:07;23.10;99.40
43089;DHT22;28709;52.030;5.652;2023-06-26T07:27:37;23.00;99.50
43089;DHT22;28709;52.030;5.652;2023-06-26T07:30:03;23.00;99.70
43089;DHT22;28709;52.030;5.652;2023-06-26T07:32:29;23.10;99.70
43089;DHT22;28709;52.030;5.652;2023-06-26T07:34:55;23.10;99.90
43089;DHT22;28709;52.030;5.652;2023-06-26T07:37:20;23.30;99.70
43089;DHT22;28709;52.030;5.652;2023-06-26T07:39:46;23.30;99.00
43089;DHT22;28709;52.030;5.652;2023-06-26T07:42:12;23.30;99.20
43089;DHT22;28709;52.030;5.652;2023-06-26T07:44:38;23.50;99.30
43089;DHT22;28709;52.030;5.652;2023-06-26T07:47:04;23.70;99.10
43089;DHT22;28709;52.030;5.652;2023-06-26T07:49:29;23.90;98.30
43089;DHT22;28709;52.030;5.652;2023-06-26T07:51:55;23.80;98.00
43089;DHT22;28709;52.030;5.652;2023-06-26T07:54:21;23.60;98.00
43089;DHT22;28709;52.030;5.652;2023-06-26T07:59:22;23.50;98.80
43089;DHT22;28709;52.030;5.652;2023-06-26T08:01:49;23.80;98.80
43089;DHT22;28709;52.030;5.652;2023-06-26T08:04:15;24.00;98.10
43089;DHT22;28709;52.030;5.652;2023-06-26T08:06:41;24.00;97.90
43089;DHT22;28709;52.030;5.652;2023-06-26T08:09:07;23.80;98.20
43089;DHT22;28709;52.030;5.652;2023-06-26T08:11:33;23.50;98.30
43089;DHT22;28709;52.030;5.652;2023-06-26T08:13:59;23.20;98.90
43089;DHT22;28709;52.030;5.652;2023-06-26T08:16:25;23.00;99.00
43089;DHT22;28709;52.030;5.652;2023-06-26T08:18:51;23.00;99.20
43089;DHT22;28709;52.030;5.652;2023-06-26T08:21:16;23.00;99.20
43089;DHT22;28709;52.030;5.652;2023-06-26T08:23:42;23.10;99.00
43089;DHT22;28709;52.030;5.652;2023-06-26T08:26:08;23.10;99.10
43089;DHT22;28709;52.030;5.652;2023-06-26T08:28:33;23.20;98.80
43089;DHT22;28709;52.030;5.652;2023-06-26T08:30:59;23.30;98.10
43089;DHT22;28709;52.030;5.652;2023-06-26T08:33:25;23.40;97.60
43089;DHT22;28709;52.030;5.652;2023-06-26T08:35:50;23.60;97.60
43089;DHT22;28709;52.030;5.652;2023-06-26T08:38:16;23.60;97.40
43089;DHT22;28709;52.030;5.652;2023-06-26T08:40:42;23.50;97.40
43089;DHT22;28709;52.030;5.652;2023-06-26T08:43:08;23.50;97.30
43089;DHT22;28709;52.030;5.652;2023-06-26T08:45:33;23.50;97.20
43089;DHT22;28709;52.030;5.652;2023-06-26T08:48:00;23.70;96.30
43089;DHT22;28709;52.030;5.652;2023-06-26T08:50:30;23.60;96.60
43089;DHT22;28709;52.030;5.652;2023-06-26T08:55:52;23.90;95.80
43089;DHT22;28709;52.030;5.652;2023-06-26T08:58:18;24.10;95.00
43089;DHT22;28709;52.030;5.652;2023-06-26T09:00:44;24.20;95.20
43089;DHT22;28709;52.030;5.652;2023-06-26T09:03:12;24.30;95.50
43089;DHT22;28709;52.030;5.652;2023-06-26T09:05:38;24.40;95.50
43089;DHT22;28709;52.030;5.652;2023-06-26T09:08:04;24.50;93.70
43089;DHT22;28709;52.030;5.652;2023-06-26T09:10:29;24.60;93.20
43089;DHT22;28709;52.030;5.652;2023-06-26T09:12:56;24.50;93.30
43089;DHT22;28709;52.030;5.652;2023-06-26T09:15:23;24.30;93.40
43089;DHT22;28709;52.030;5.652;2023-06-26T09:17:49;24.10;93.80
43089;DHT22;28709;52.030;5.652;2023-06-26T09:20:15;24.10;92.70
43089;DHT22;28709;52.030;5.652;2023-06-26T09:22:42;24.10;92.50
43089;DHT22;28709;52.030;5.652;2023-06-26T09:25:09;24.00;92.30
43089;DHT22;28709;52.030;5.652;2023-06-26T09:27:35;24.10;91.70
43089;DHT22;28709;52.030;5.652;2023-06-26T09:30:03;24.20;91.20
43089;DHT22;28709;52.030;5.652;2023-06-26T09:32:29;24.50;91.00
43089;DHT22;28709;52.030;5.652;2023-06-26T09:34:54;24.70;91.00
43089;DHT22;28709;52.030;5.652;2023-06-26T09:37:26;24.90;88.30
43089;DHT22;28709;52.030;5.652;2023-06-26T09:39:52;24.80;87.00
43089;DHT22;28709;52.030;5.652;2023-06-26T09:42:19;24.80;86.40
43089;DHT22;28709;52.030;5.652;2023-06-26T09:44:45;24.90;87.00
43089;DHT22;28709;52.030;5.652;2023-06-26T09:47:11;25.10;86.10
43089;DHT22;28709;52.030;5.652;2023-06-26T09:49:41;25.20;85.60
43089;DHT22;28709;52.030;5.652;2023-06-26T09:52:08;25.00;86.20
43089;DHT22;28709;52.030;5.652;2023-06-26T09:54:33;25.20;86.50
43089;DHT22;28709;52.030;5.652;2023-06-26T09:57:08;25.40;86.20
43089;DHT22;28709;52.030;5.652;2023-06-26T09:59:34;25.50;87.00
43089;DHT22;28709;52.030;5.652;2023-06-26T10:02:00;25.20;84.30
43089;DHT22;28709;52.030;5.652;2023-06-26T10:04:26;24.90;84.60
43089;DHT22;28709;52.030;5.652;2023-06-26T10:06:55;24.70;85.50
43089;DHT22;28709;52.030;5.652;2023-06-26T10:09:22;24.80;86.20
43089;DHT22;28709;52.030;5.652;2023-06-26T10:12:02;24.90;86.30
43089;DHT22;28709;52.030;5.652;2023-06-26T10:14:36;25.10;83.30
43089;DHT22;28709;52.030;5.652;2023-06-26T10:17:06;25.40;83.80
43089;DHT22;28709;52.030;5.652;2023-06-26T10:19:35;25.50;83.70
43089;DHT22;28709;52.030;5.652;2023-06-26T10:22:02;25.70;83.50
43089;DHT22;28709;52.030;5.652;2023-06-26T10:24:33;25.90;82.50
43089;DHT22;28709;52.030;5.652;2023-06-26T10:27:04;26.10;82.70
43089;DHT22;28709;52.030;5.652;2023-06-26T10:29:31;26.20;82.10
43089;DHT22;28709;52.030;5.652;2023-06-26T10:31:59;26.40;79.90
43089;DHT22;28709;52.030;5.652;2023-06-26T10:34:25;26.50;80.30
43089;DHT22;28709;52.030;5.652;2023-06-26T10:37:02;26.30;80.70
43089;DHT22;28709;52.030;5.652;2023-06-26T10:39:49;26.00;81.90
43089;DHT22;28709;52.030;5.652;2023-06-26T10:42:18;25.70;82.40
43089;DHT22;28709;52.030;5.652;2023-06-26T10:44:46;25.40;82.50
43089;DHT22;28709;52.030;5.652;2023-06-26T10:47:31;25.40;83.10
43089;DHT22;28709;52.030;5.652;2023-06-26T10:50:16;25.60;81.60
43089;DHT22;28709;52.030;5.652;2023-06-26T10:52:43;25.50;80.10
43089;DHT22;28709;52.030;5.652;2023-06-26T10:55:09;25.40;79.90
43089;DHT22;28709;52.030;5.652;2023-06-26T10:57:36;25.20;78.60
43089;DHT22;28709;52.030;5.652;2023-06-26T11:00:10;25.00;80.80
43089;DHT22;28709;52.030;5.652;2023-06-26T11:02:52;25.10;81.20
43089;DHT22;28709;52.030;5.652;2023-06-26T11:05:33;25.40;81.50
43089;DHT22;28709;52.030;5.652;2023-06-26T11:08:17;25.80;80.00
43089;DHT22;28709;52.030;5.652;2023-06-26T11:10:54;26.10;78.40
43089;DHT22;28709;52.030;5.652;2023-06-26T11:13:25;26.20;76.50
43089;DHT22;28709;52.030;5.652;2023-06-26T11:15:52;26.20;77.00
43089;DHT22;28709;52.030;5.652;2023-06-26T11:18:17;26.30;76.90
43089;DHT22;28709;52.030;5.652;2023-06-26T11:20:43;26.30;76.20
43089;DHT22;28709;52.030;5.652;2023-06-26T11:23:09;26.30;76.20
43089;DHT22;28709;52.030;5.652;2023-06-26T11:25:36;26.30;76.70
43089;DHT22;28709;52.030;5.652;2023-06-26T11:28:03;26.20;77.70
43089;DHT22;28709;52.030;5.652;2023-06-26T11:30:29;26.00;77.40
43089;DHT22;28709;52.030;5.652;2023-06-26T11:33:06;25.60;77.60
43089;DHT22;28709;52.030;5.652;2023-06-26T11:35:31;25.60;77.60
43089;DHT22;28709;52.030;5.652;2023-06-26T11:37:58;25.60;77.10
43089;DHT22;28709;52.030;5.652;2023-06-26T11:40:26;25.50;78.10
43089;DHT22;28709;52.030;5.652;2023-06-26T11:42:58;25.30;79.30
43089;DHT22;28709;52.030;5.652;2023-06-26T11:45:24;25.20;79.70
43089;DHT22;28709;52.030;5.652;2023-06-26T11:47:50;25.00;80.00
43089;DHT22;28709;52.030;5.652;2023-06-26T11:50:16;25.20;79.90
43089;DHT22;28709;52.030;5.652;2023-06-26T11:52:43;25.50;78.90
43089;DHT22;28709;52.030;5.652;2023-06-26T11:55:09;25.80;78.90
43089;DHT22;28709;52.030;5.652;2023-06-26T11:57:36;26.00;78.20
43089;DHT22;28709;52.030;5.652;2023-06-26T12:00:12;26.10;76.50
43089;DHT22;28709;52.030;5.652;2023-06-26T12:02:38;26.10;75.90
43089;DHT22;28709;52.030;5.652;2023-06-26T12:05:04;26.10;76.80
43089;DHT22;28709;52.030;5.652;2023-06-26T12:07:30;26.10;76.30
43089;DHT22;28709;52.030;5.652;2023-06-26T12:09:57;26.20;75.10
43089;DHT22;28709;52.030;5.652;2023-06-26T12:12:24;26.20;75.80
43089;DHT22;28709;52.030;5.652;2023-06-26T12:14:51;26.30;75.40
43089;DHT22;28709;52.030;5.652;2023-06-26T12:17:17;26.30;75.40
43089;DHT22;28709;52.030;5.652;2023-06-26T12:19:47;26.30;75.10
43089;DHT22;28709;52.030;5.652;2023-06-26T12:22:17;26.40;75.30
43089;DHT22;28709;52.030;5.652;2023-06-26T12:24:44;26.30;75.40
43089;DHT22;28709;52.030;5.652;2023-06-26T12:27:11;26.10;76.20
43089;DHT22;28709;52.030;5.652;2023-06-26T12:29:40;25.90;76.20
43089;DHT22;28709;52.030;5.652;2023-06-26T12:32:10;26.10;76.90
43089;DHT22;28709;52.030;5.652;2023-06-26T12:34:38;26.20;75.50
43089;DHT22;28709;52.030;5.652;2023-06-26T12:37:11;26.10;75.50
43089;DHT22;28709;52.030;5.652;2023-06-26T12:39:49;25.60;76.50
43089;DHT22;28709;52.030;5.652;2023-06-26T12:42:26;25.30;76.10
43089;DHT22;28709;52.030;5.652;2023-06-26T12:44:53;25.20;76.50
43089;DHT22;28709;52.030;5.652;2023-06-26T12:47:25;25.10;75.70
43089;DHT22;28709;52.030;5.652;2023-06-26T12:49:52;25.20;74.40
43089;DHT22;28709;52.030;5.652;2023-06-26T12:52:19;25.30;74.00
43089;DHT22;28709;52.030;5.652;2023-06-26T12:54:45;25.30;74.20
43089;DHT22;28709;52.030;5.652;2023-06-26T12:57:13;25.40;73.90
43089;DHT22;28709;52.030;5.652;2023-06-26T12:59:42;25.50;72.70
43089;DHT22;28709;52.030;5.652;2023-06-26T13:02:08;25.50;72.90
43089;DHT22;28709;52.030;5.652;2023-06-26T13:04:34;25.40;72.90
43089;DHT22;28709;52.030;5.652;2023-06-26T13:07:01;25.30;73.70
43089;DHT22;28709;52.030;5.652;2023-06-26T13:09:31;25.30;73.80
43089;DHT22;28709;52.030;5.652;2023-06-26T13:11:58;25.40;72.90
43089;DHT22;28709;52.030;5.652;2023-06-26T13:14:24;25.20;73.50
43089;DHT22;28709;52.030;5.652;2023-06-26T13:16:50;25.30;74.30
43089;DHT22;28709;52.030;5.652;2023-06-26T13:19:15;25.40;73.30
43089;DHT22;28709;52.030;5.652;2023-06-26T13:21:41;25.40;72.30
43089;DHT22;28709;52.030;5.652;2023-06-26T13:24:07;25.30;72.90
43089;DHT22;28709;52.030;5.652;2023-06-26T13:26:33;25.10;72.50
43089;DHT22;28709;52.030;5.652;2023-06-26T13:28:59;24.80;72.30
43089;DHT22;28709;52.030;5.652;2023-06-26T13:31:25;24.70;73.10
43089;DHT22;28709;52.030;5.652;2023-06-26T13:33:51;24.60;74.00
43089;DHT22;28709;52.030;5.652;2023-06-26T13:36:20;24.80;74.00
43089;DHT22;28709;52.030;5.652;2023-06-26T13:38:46;25.00;74.10
43089;DHT22;28709;52.030;5.652;2023-06-26T13:41:14;25.20;72.70
43089;DHT22;28709;52.030;5.652;2023-06-26T13:43:40;25.10;71.50
43089;DHT22;28709;52.030;5.652;2023-06-26T13:46:06;24.90;71.50
43089;DHT22;28709;52.030;5.652;2023-06-26T13:48:32;24.90;70.20
43089;DHT22;28709;52.030;5.652;2023-06-26T13:50:58;25.00;71.50
43089;DHT22;28709;52.030;5.652;2023-06-26T13:53:24;25.10;71.40
43089;DHT22;28709;52.030;5.652;2023-06-26T13:55:50;25.00;71.50
43089;DHT22;28709;52.030;5.652;2023-06-26T13:58:16;25.00;70.30
43089;DHT22;28709;52.030;5.652;2023-06-26T14:00:41;24.70;71.20
43089;DHT22;28709;52.030;5.652;2023-06-26T14:03:09;24.60;71.10
43089;DHT22;28709;52.030;5.652;2023-06-26T14:05:36;24.70;71.50
43089;DHT22;28709;52.030;5.652;2023-06-26T14:08:03;24.70;72.00
43089;DHT22;28709;52.030;5.652;2023-06-26T14:10:30;24.70;71.50
43089;DHT22;28709;52.030;5.652;2023-06-26T14:12:56;24.60;71.80
43089;DHT22;28709;52.030;5.652;2023-06-26T14:15:22;24.60;71.70
43089;DHT22;28709;52.030;5.652;2023-06-26T14:17:47;24.60;71.90
43089;DHT22;28709;52.030;5.652;2023-06-26T14:20:15;24.60;72.90
43089;DHT22;28709;52.030;5.652;2023-06-26T14:22:43;24.50;73.20
43089;DHT22;28709;52.030;5.652;2023-06-26T14:25:10;24.40;74.50
43089;DHT22;28709;52.030;5.652;2023-06-26T14:27:36;24.10;75.10
43089;DHT22;28709;52.030;5.652;2023-06-26T14:30:06;23.90;75.40
43089;DHT22;28709;52.030;5.652;2023-06-26T14:32:33;23.70;75.10
43089;DHT22;28709;52.030;5.652;2023-06-26T14:34:59;23.60;74.90
43089;DHT22;28709;52.030;5.652;2023-06-26T14:37:30;23.40;75.50
43089;DHT22;28709;52.030;5.652;2023-06-26T14:39:56;23.30;74.10
43089;DHT22;28709;52.030;5.652;2023-06-26T14:42:22;23.30;74.60
43089;DHT22;28709;52.030;5.652;2023-06-26T14:44:48;23.40;74.90
43089;DHT22;28709;52.030;5.652;2023-06-26T14:47:19;23.50;75.40
43089;DHT22;28709;52.030;5.652;2023-06-26T14:49:45;23.70;75.80
43089;DHT22;28709;52.030;5.652;2023-06-26T14:52:10;23.80;75.00
43089;DHT22;28709;52.030;5.652;2023-06-26T14:54:36;23.90;75.40
43089;DHT22;28709;52.030;5.652;2023-06-26T14:57:05;23.80;75.30
43089;DHT22;28709;52.030;5.652;2023-06-26T14:59:31;23.80;75.20
43089;DHT22;28709;52.030;5.652;2023-06-26T15:01:57;23.70;75.10
43089;DHT22;28709;52.030;5.652;2023-06-26T15:04:22;23.70;74.80
43089;DHT22;28709;52.030;5.652;2023-06-26T15:06:48;23.70;75.20
43089;DHT22;28709;52.030;5.652;2023-06-26T15:09:14;23.70;73.80
43089;DHT22;28709;52.030;5.652;2023-06-26T15:11:39;23.70;74.00
43089;DHT22;28709;52.030;5.652;2023-06-26T15:14:05;23.70;74.40
43089;DHT22;28709;52.030;5.652;2023-06-26T15:16:31;23.60;74.90
43089;DHT22;28709;52.030;5.652;2023-06-26T15:18:56;23.40;75.60
43089;DHT22;28709;52.030;5.652;2023-06-26T15:21:22;23.50;75.50
43089;DHT22;28709;52.030;5.652;2023-06-26T15:23:47;23.50;75.50
43089;DHT22;28709;52.030;5.652;2023-06-26T15:26:13;23.20;75.00
43089;DHT22;28709;52.030;5.652;2023-06-26T15:28:39;23.10;74.90
43089;DHT22;28709;52.030;5.652;2023-06-26T15:31:05;23.10;75.90
43089;DHT22;28709;52.030;5.652;2023-06-26T15:33:30;23.00;75.30
43089;DHT22;28709;52.030;5.652;2023-06-26T15:35:56;23.00;76.10
43089;DHT22;28709;52.030;5.652;2023-06-26T15:38:22;22.90;76.90